PAVD METAR and TAF weather

Enter ICAO airport designator
Station Type Date Time Source
PAVD METAR 2022/06/28 22:56 UTC NOAA

PAVD 282256Z 21006KT 10SM FEW300 19/12 A2999 RMK AO2 SLP152 T01940117 $


Station Type Date Time Source
PAVD Decoded METAR 2022/06/28 22:56 UTC NOAA

Valdez 2, AK, United States (PAVD) 61-08N 146-16W
Jun 28, 2022 - 06:56 PM EDT / 2022.06.28 2256 UTC
Wind: from the SSW (210 degrees) at 7 MPH (6 KT):0
Visibility: 10 mile(s):0
Sky conditions: mostly clear
Temperature: 66.9 F (19.4 C)
Dew Point: 53.1 F (11.7 C)
Relative Humidity: 61%
Pressure (altimeter): 29.99 in. Hg (1015 hPa)
ob: PAVD 282256Z 21006KT 10SM FEW300 19/12 A2999 RMK AO2 SLP152 T01940117
cycle: 23

Station Type Date Time Source
PAVD TAF 2022/06/28 18:28 UTC NOAA

TAF PAVD 281726Z 2818/2918 VRB03KT P6SM FEW250
FM282100 24008KT P6SM SKC
FM290600 07006KT P6SM FEW100
FM291200 VRB03KT P6SM FEW005

Example: see airport list